sensor_id;sensor_type;location;lat;lon;timestamp;temperature;humidity
46438;DHT22;32137;48.728;9.142;2023-02-11T00:00:10;-0.10;99.90
46438;DHT22;32137;48.728;9.142;2023-02-11T00:02:35;-0.10;99.90
46438;DHT22;32137;48.728;9.142;2023-02-11T00:05:01;-0.10;99.90
46438;DHT22;32137;48.728;9.142;2023-02-11T00:07:30;-0.10;99.90
46438;DHT22;32137;48.728;9.142;2023-02-11T00:09:56;-0.10;99.90
46438;DHT22;32137;48.728;9.142;2023-02-11T00:12:22;-0.10;99.90
46438;DHT22;32137;48.728;9.142;2023-02-11T00:14:47;-0.10;99.90
46438;DHT22;32137;48.728;9.142;2023-02-11T00:17:14;-0.10;99.90
46438;DHT22;32137;48.728;9.142;2023-02-11T00:19:39;-0.10;99.90
46438;DHT22;32137;48.728;9.142;2023-02-11T00:22:05;-0.10;99.90
46438;DHT22;32137;48.728;9.142;2023-02-11T00:24:31;-0.10;99.90
46438;DHT22;32137;48.728;9.142;2023-02-11T00:26:57;-0.20;99.90
46438;DHT22;32137;48.728;9.142;2023-02-11T00:29:23;-0.20;99.90
46438;DHT22;32137;48.728;9.142;2023-02-11T00:31:49;-0.30;99.90
46438;DHT22;32137;48.728;9.142;2023-02-11T00:34:14;-0.30;99.90
46438;DHT22;32137;48.728;9.142;2023-02-11T00:36:40;-0.30;99.90
46438;DHT22;32137;48.728;9.142;2023-02-11T00:39:06;-0.30;99.90
46438;DHT22;32137;48.728;9.142;2023-02-11T00:41:31;-0.30;99.90
46438;DHT22;32137;48.728;9.142;2023-02-11T00:43:57;-0.30;99.90
46438;DHT22;32137;48.728;9.142;2023-02-11T00:46:22;-0.30;99.90
46438;DHT22;32137;48.728;9.142;2023-02-11T00:48:48;-0.30;99.90
46438;DHT22;32137;48.728;9.142;2023-02-11T00:51:16;-0.30;99.90
46438;DHT22;32137;48.728;9.142;2023-02-11T00:53:42;-0.30;99.90
46438;DHT22;32137;48.728;9.142;2023-02-11T00:56:08;-0.40;99.90
46438;DHT22;32137;48.728;9.142;2023-02-11T00:58:34;-0.40;99.90
46438;DHT22;32137;48.728;9.142;2023-02-11T01:01:00;-0.40;99.90
46438;DHT22;32137;48.728;9.142;2023-02-11T01:03:27;-0.40;99.90
46438;DHT22;32137;48.728;9.142;2023-02-11T01:05:55;-0.40;99.90
46438;DHT22;32137;48.728;9.142;2023-02-11T01:08:21;-0.50;99.90
46438;DHT22;32137;48.728;9.142;2023-02-11T01:11:14;-0.50;99.90
46438;DHT22;32137;48.728;9.142;2023-02-11T01:13:40;-0.40;99.90
46438;DHT22;32137;48.728;9.142;2023-02-11T01:16:07;-0.50;99.90
46438;DHT22;32137;48.728;9.142;2023-02-11T01:18:33;-0.50;99.90
46438;DHT22;32137;48.728;9.142;2023-02-11T01:20:59;-0.50;99.90
46438;DHT22;32137;48.728;9.142;2023-02-11T01:23:25;-0.50;99.90
46438;DHT22;32137;48.728;9.142;2023-02-11T01:25:51;-0.50;99.90
46438;DHT22;32137;48.728;9.142;2023-02-11T01:28:18;-0.50;99.90
46438;DHT22;32137;48.728;9.142;2023-02-11T01:30:44;-0.50;99.90
46438;DHT22;32137;48.728;9.142;2023-02-11T01:33:10;-0.50;99.90
46438;DHT22;32137;48.728;9.142;2023-02-11T01:35:40;-0.60;99.90
46438;DHT22;32137;48.728;9.142;2023-02-11T01:38:14;-0.60;99.90
46438;DHT22;32137;48.728;9.142;2023-02-11T01:40:46;-0.60;99.90
46438;DHT22;32137;48.728;9.142;2023-02-11T01:43:12;-0.60;99.90
46438;DHT22;32137;48.728;9.142;2023-02-11T01:48:13;-0.70;99.90
46438;DHT22;32137;48.728;9.142;2023-02-11T01:50:40;-0.60;99.90
46438;DHT22;32137;48.728;9.142;2023-02-11T01:53:07;-0.70;99.90
46438;DHT22;32137;48.728;9.142;2023-02-11T01:55:53;-0.70;99.90
46438;DHT22;32137;48.728;9.142;2023-02-11T01:58:40;-0.70;99.90
46438;DHT22;32137;48.728;9.142;2023-02-11T02:01:07;-0.70;99.90
46438;DHT22;32137;48.728;9.142;2023-02-11T02:03:36;-0.70;99.90
46438;DHT22;32137;48.728;9.142;2023-02-11T02:06:11;-0.70;99.90
46438;DHT22;32137;48.728;9.142;2023-02-11T02:09:04;-0.70;99.90
46438;DHT22;32137;48.728;9.142;2023-02-11T02:11:30;-0.70;99.90
46438;DHT22;32137;48.728;9.142;2023-02-11T02:13:56;-0.70;99.90
46438;DHT22;32137;48.728;9.142;2023-02-11T02:16:28;-0.70;99.90
46438;DHT22;32137;48.728;9.142;2023-02-11T02:27:28;-0.70;99.90
46438;DHT22;32137;48.728;9.142;2023-02-11T02:32:48;-0.70;99.90
46438;DHT22;32137;48.728;9.142;2023-02-11T02:35:23;-0.70;99.90
46438;DHT22;32137;48.728;9.142;2023-02-11T02:38:17;-0.70;99.90
46438;DHT22;32137;48.728;9.142;2023-02-11T02:41:08;-0.70;99.90
46438;DHT22;32137;48.728;9.142;2023-02-11T02:43:37;-0.70;99.90
46438;DHT22;32137;48.728;9.142;2023-02-11T02:46:15;-0.70;99.90
46438;DHT22;32137;48.728;9.142;2023-02-11T02:48:42;-0.70;99.90
46438;DHT22;32137;48.728;9.142;2023-02-11T03:02:25;-0.70;99.90
46438;DHT22;32137;48.728;9.142;2023-02-11T03:07:52;-0.60;99.90
46438;DHT22;32137;48.728;9.142;2023-02-11T03:10:26;-0.60;99.90
46438;DHT22;32137;48.728;9.142;2023-02-11T03:12:53;-0.60;99.90
46438;DHT22;32137;48.728;9.142;2023-02-11T03:15:21;-0.60;99.90
46438;DHT22;32137;48.728;9.142;2023-02-11T03:17:48;-0.70;99.90
46438;DHT22;32137;48.728;9.142;2023-02-11T03:20:19;-0.70;99.90
46438;DHT22;32137;48.728;9.142;2023-02-11T03:25:14;-0.80;99.90
46438;DHT22;32137;48.728;9.142;2023-02-11T03:27:46;-0.80;99.90
46438;DHT22;32137;48.728;9.142;2023-02-11T03:30:17;-0.80;99.90
46438;DHT22;32137;48.728;9.142;2023-02-11T03:32:50;-0.80;99.90
46438;DHT22;32137;48.728;9.142;2023-02-11T03:35:28;-0.80;99.90
46438;DHT22;32137;48.728;9.142;2023-02-11T03:38:04;-0.80;99.90
46438;DHT22;32137;48.728;9.142;2023-02-11T03:40:35;-0.80;99.90
46438;DHT22;32137;48.728;9.142;2023-02-11T03:43:14;-0.80;99.90
46438;DHT22;32137;48.728;9.142;2023-02-11T03:45:43;-0.80;99.90
46438;DHT22;32137;48.728;9.142;2023-02-11T03:48:26;-0.80;99.90
46438;DHT22;32137;48.728;9.142;2023-02-11T03:50:54;-0.80;99.90
46438;DHT22;32137;48.728;9.142;2023-02-11T03:53:22;-0.80;99.90
46438;DHT22;32137;48.728;9.142;2023-02-11T03:55:49;-0.80;99.90
46438;DHT22;32137;48.728;9.142;2023-02-11T03:58:15;-0.80;99.90
46438;DHT22;32137;48.728;9.142;2023-02-11T04:00:42;-0.80;99.90
46438;DHT22;32137;48.728;9.142;2023-02-11T04:03:09;-0.80;99.90
46438;DHT22;32137;48.728;9.142;2023-02-11T04:05:35;-0.80;99.90
46438;DHT22;32137;48.728;9.142;2023-02-11T04:08:01;-0.80;99.90
46438;DHT22;32137;48.728;9.142;2023-02-11T04:10:27;-0.70;99.90
46438;DHT22;32137;48.728;9.142;2023-02-11T04:12:52;-0.70;99.90
46438;DHT22;32137;48.728;9.142;2023-02-11T04:15:18;-0.60;99.90
46438;DHT22;32137;48.728;9.142;2023-02-11T04:17:44;-0.60;99.90
46438;DHT22;32137;48.728;9.142;2023-02-11T04:20:10;-0.50;99.90
46438;DHT22;32137;48.728;9.142;2023-02-11T04:22:36;-0.50;99.90
46438;DHT22;32137;48.728;9.142;2023-02-11T04:25:02;-0.50;99.90
46438;DHT22;32137;48.728;9.142;2023-02-11T04:27:28;-0.40;99.90
46438;DHT22;32137;48.728;9.142;2023-02-11T04:29:53;-0.30;99.90
46438;DHT22;32137;48.728;9.142;2023-02-11T04:32:19;-0.30;99.90
46438;DHT22;32137;48.728;9.142;2023-02-11T04:34:45;-0.30;99.90
46438;DHT22;32137;48.728;9.142;2023-02-11T04:37:10;-0.30;99.90
46438;DHT22;32137;48.728;9.142;2023-02-11T04:39:36;-0.20;99.90
46438;DHT22;32137;48.728;9.142;2023-02-11T04:42:01;-0.20;99.90
46438;DHT22;32137;48.728;9.142;2023-02-11T04:44:27;-0.30;99.90
46438;DHT22;32137;48.728;9.142;2023-02-11T04:46:52;-0.30;99.90
46438;DHT22;32137;48.728;9.142;2023-02-11T04:49:18;-0.20;99.90
46438;DHT22;32137;48.728;9.142;2023-02-11T04:51:44;-0.20;99.90
46438;DHT22;32137;48.728;9.142;2023-02-11T04:54:10;-0.20;99.90
46438;DHT22;32137;48.728;9.142;2023-02-11T04:56:36;-0.10;99.90
46438;DHT22;32137;48.728;9.142;2023-02-11T04:59:02;-0.10;99.90
46438;DHT22;32137;48.728;9.142;2023-02-11T05:01:27;-0.10;99.90
46438;DHT22;32137;48.728;9.142;2023-02-11T05:03:53;-0.10;99.90
46438;DHT22;32137;48.728;9.142;2023-02-11T05:06:18;-0.10;99.90
46438;DHT22;32137;48.728;9.142;2023-02-11T05:08:44;-0.10;99.90
46438;DHT22;32137;48.728;9.142;2023-02-11T05:11:18;0.00;99.90
46438;DHT22;32137;48.728;9.142;2023-02-11T05:13:45;-0.10;99.90
46438;DHT22;32137;48.728;9.142;2023-02-11T05:16:11;-0.10;99.90
46438;DHT22;32137;48.728;9.142;2023-02-11T05:18:37;0.00;99.90
46438;DHT22;32137;48.728;9.142;2023-02-11T05:21:08;0.00;99.90
46438;DHT22;32137;48.728;9.142;2023-02-11T05:23:34;0.00;99.90
46438;DHT22;32137;48.728;9.142;2023-02-11T05:26:00;0.00;99.90
46438;DHT22;32137;48.728;9.142;2023-02-11T05:28:26;0.00;99.90
46438;DHT22;32137;48.728;9.142;2023-02-11T05:30:52;-0.10;99.90
46438;DHT22;32137;48.728;9.142;2023-02-11T05:33:17;0.00;99.90
46438;DHT22;32137;48.728;9.142;2023-02-11T05:35:43;0.00;99.90
46438;DHT22;32137;48.728;9.142;2023-02-11T05:38:09;0.00;99.90
46438;DHT22;32137;48.728;9.142;2023-02-11T05:40:34;0.00;99.90
46438;DHT22;32137;48.728;9.142;2023-02-11T05:43:00;0.00;99.90
46438;DHT22;32137;48.728;9.142;2023-02-11T05:45:25;0.00;99.90
46438;DHT22;32137;48.728;9.142;2023-02-11T05:47:51;0.00;99.90
46438;DHT22;32137;48.728;9.142;2023-02-11T05:50:17;0.00;99.90
46438;DHT22;32137;48.728;9.142;2023-02-11T05:52:42;-0.10;99.90
46438;DHT22;32137;48.728;9.142;2023-02-11T05:55:08;-0.10;99.90
46438;DHT22;32137;48.728;9.142;2023-02-11T05:57:33;0.00;99.90
46438;DHT22;32137;48.728;9.142;2023-02-11T05:59:59;0.00;99.90
46438;DHT22;32137;48.728;9.142;2023-02-11T06:02:25;0.00;99.90
46438;DHT22;32137;48.728;9.142;2023-02-11T06:04:51;0.00;99.90
46438;DHT22;32137;48.728;9.142;2023-02-11T06:07:16;0.00;99.90
46438;DHT22;32137;48.728;9.142;2023-02-11T06:09:44;0.00;99.90
46438;DHT22;32137;48.728;9.142;2023-02-11T06:12:09;0.00;99.90
46438;DHT22;32137;48.728;9.142;2023-02-11T06:14:35;0.00;99.90
46438;DHT22;32137;48.728;9.142;2023-02-11T06:17:01;0.00;99.90
46438;DHT22;32137;48.728;9.142;2023-02-11T06:19:26;0.00;99.90
46438;DHT22;32137;48.728;9.142;2023-02-11T06:21:52;0.10;99.90
46438;DHT22;32137;48.728;9.142;2023-02-11T06:24:17;0.10;99.90
46438;DHT22;32137;48.728;9.142;2023-02-11T06:26:43;0.10;99.90
46438;DHT22;32137;48.728;9.142;2023-02-11T06:29:08;0.20;99.90
46438;DHT22;32137;48.728;9.142;2023-02-11T06:31:36;0.20;99.90
46438;DHT22;32137;48.728;9.142;2023-02-11T06:34:02;0.20;99.90
46438;DHT22;32137;48.728;9.142;2023-02-11T06:36:27;0.20;99.90
46438;DHT22;32137;48.728;9.142;2023-02-11T06:38:53;0.20;99.90
46438;DHT22;32137;48.728;9.142;2023-02-11T06:41:18;0.20;99.90
46438;DHT22;32137;48.728;9.142;2023-02-11T06:43:45;0.20;99.90
46438;DHT22;32137;48.728;9.142;2023-02-11T06:46:10;0.20;99.90
46438;DHT22;32137;48.728;9.142;2023-02-11T06:48:36;0.20;99.90
46438;DHT22;32137;48.728;9.142;2023-02-11T06:51:03;0.20;99.90
46438;DHT22;32137;48.728;9.142;2023-02-11T06:53:30;0.20;99.90
46438;DHT22;32137;48.728;9.142;2023-02-11T06:56:00;0.20;99.90
46438;DHT22;32137;48.728;9.142;2023-02-11T06:58:26;0.30;99.90
46438;DHT22;32137;48.728;9.142;2023-02-11T07:00:51;0.30;99.90
46438;DHT22;32137;48.728;9.142;2023-02-11T07:03:17;0.30;99.90
46438;DHT22;32137;48.728;9.142;2023-02-11T07:05:42;0.30;99.90
46438;DHT22;32137;48.728;9.142;2023-02-11T07:08:08;0.30;99.90
46438;DHT22;32137;48.728;9.142;2023-02-11T07:10:33;0.40;99.90
46438;DHT22;32137;48.728;9.142;2023-02-11T07:12:59;0.40;99.90
46438;DHT22;32137;48.728;9.142;2023-02-11T07:15:25;0.40;99.90
46438;DHT22;32137;48.728;9.142;2023-02-11T07:17:50;0.50;99.90
46438;DHT22;32137;48.728;9.142;2023-02-11T07:20:16;0.50;99.90
46438;DHT22;32137;48.728;9.142;2023-02-11T07:22:41;0.50;99.90
46438;DHT22;32137;48.728;9.142;2023-02-11T07:25:07;0.60;99.90
46438;DHT22;32137;48.728;9.142;2023-02-11T07:27:32;0.60;99.90
46438;DHT22;32137;48.728;9.142;2023-02-11T07:29:58;0.60;99.90
46438;DHT22;32137;48.728;9.142;2023-02-11T07:32:24;0.60;99.90
46438;DHT22;32137;48.728;9.142;2023-02-11T07:34:49;0.60;99.90
46438;DHT22;32137;48.728;9.142;2023-02-11T07:37:15;0.60;99.90
46438;DHT22;32137;48.728;9.142;2023-02-11T07:39:40;0.60;99.90
46438;DHT22;32137;48.728;9.142;2023-02-11T07:42:06;0.60;99.90
46438;DHT22;32137;48.728;9.142;2023-02-11T07:44:31;0.70;99.90
46438;DHT22;32137;48.728;9.142;2023-02-11T07:46:58;0.70;99.90
46438;DHT22;32137;48.728;9.142;2023-02-11T07:49:24;0.70;99.90
46438;DHT22;32137;48.728;9.142;2023-02-11T07:51:49;0.80;99.90
46438;DHT22;32137;48.728;9.142;2023-02-11T07:54:16;0.80;99.90
46438;DHT22;32137;48.728;9.142;2023-02-11T07:56:41;0.90;99.90
46438;DHT22;32137;48.728;9.142;2023-02-11T07:59:07;0.90;99.90
46438;DHT22;32137;48.728;9.142;2023-02-11T08:01:32;1.00;99.90
46438;DHT22;32137;48.728;9.142;2023-02-11T08:04:00;1.00;99.90
46438;DHT22;32137;48.728;9.142;2023-02-11T08:06:28;1.10;99.90
46438;DHT22;32137;48.728;9.142;2023-02-11T08:08:54;1.10;99.90
46438;DHT22;32137;48.728;9.142;2023-02-11T08:11:22;1.20;99.90
46438;DHT22;32137;48.728;9.142;2023-02-11T08:13:48;1.20;99.90
46438;DHT22;32137;48.728;9.142;2023-02-11T08:16:25;1.20;99.90
46438;DHT22;32137;48.728;9.142;2023-02-11T08:18:52;1.30;99.90
46438;DHT22;32137;48.728;9.142;2023-02-11T08:21:18;1.40;99.90
46438;DHT22;32137;48.728;9.142;2023-02-11T08:23:45;1.40;99.90
46438;DHT22;32137;48.728;9.142;2023-02-11T08:26:18;1.50;99.90
46438;DHT22;32137;48.728;9.142;2023-02-11T08:28:46;1.60;99.90
46438;DHT22;32137;48.728;9.142;2023-02-11T08:31:15;1.60;99.90
46438;DHT22;32137;48.728;9.142;2023-02-11T08:33:41;1.70;99.90
46438;DHT22;32137;48.728;9.142;2023-02-11T08:36:12;1.70;99.90
46438;DHT22;32137;48.728;9.142;2023-02-11T08:38:39;1.80;99.90
46438;DHT22;32137;48.728;9.142;2023-02-11T08:41:04;1.80;99.90
46438;DHT22;32137;48.728;9.142;2023-02-11T08:43:30;1.90;99.90
46438;DHT22;32137;48.728;9.142;2023-02-11T08:45:57;1.90;99.90
46438;DHT22;32137;48.728;9.142;2023-02-11T08:48:23;1.90;99.90
46438;DHT22;32137;48.728;9.142;2023-02-11T08:50:48;1.90;99.90
46438;DHT22;32137;48.728;9.142;2023-02-11T08:53:14;1.90;99.90
46438;DHT22;32137;48.728;9.142;2023-02-11T08:55:39;1.90;99.90
46438;DHT22;32137;48.728;9.142;2023-02-11T08:58:05;1.80;99.90
46438;DHT22;32137;48.728;9.142;2023-02-11T09:00:30;1.80;99.90
46438;DHT22;32137;48.728;9.142;2023-02-11T09:02:56;1.70;99.90
46438;DHT22;32137;48.728;9.142;2023-02-11T09:05:21;1.70;99.90
46438;DHT22;32137;48.728;9.142;2023-02-11T09:07:47;1.70;99.90
46438;DHT22;32137;48.728;9.142;2023-02-11T09:10:13;1.80;99.90
46438;DHT22;32137;48.728;9.142;2023-02-11T09:12:38;1.80;99.90
46438;DHT22;32137;48.728;9.142;2023-02-11T09:15:04;1.80;99.90
46438;DHT22;32137;48.728;9.142;2023-02-11T09:17:30;1.80;99.90
46438;DHT22;32137;48.728;9.142;2023-02-11T09:19:55;1.80;99.90
46438;DHT22;32137;48.728;9.142;2023-02-11T09:22:21;1.80;99.90
46438;DHT22;32137;48.728;9.142;2023-02-11T09:24:46;1.90;99.90
46438;DHT22;32137;48.728;9.142;2023-02-11T09:27:12;2.00;99.90
46438;DHT22;32137;48.728;9.142;2023-02-11T09:29:37;2.10;99.90
46438;DHT22;32137;48.728;9.142;2023-02-11T09:32:03;2.10;99.90
46438;DHT22;32137;48.728;9.142;2023-02-11T09:34:30;2.20;99.90
46438;DHT22;32137;48.728;9.142;2023-02-11T09:36:55;2.20;99.90
46438;DHT22;32137;48.728;9.142;2023-02-11T09:39:21;2.20;99.90
46438;DHT22;32137;48.728;9.142;2023-02-11T09:41:53;2.20;99.90
46438;DHT22;32137;48.728;9.142;2023-02-11T09:44:24;2.30;99.90
46438;DHT22;32137;48.728;9.142;2023-02-11T09:46:54;2.20;99.90
46438;DHT22;32137;48.728;9.142;2023-02-11T09:49:33;2.30;99.90
46438;DHT22;32137;48.728;9.142;2023-02-11T09:54:49;2.40;99.90
46438;DHT22;32137;48.728;9.142;2023-02-11T09:57:16;2.40;99.90
46438;DHT22;32137;48.728;9.142;2023-02-11T09:59:41;2.50;99.90
46438;DHT22;32137;48.728;9.142;2023-02-11T10:05:17;2.60;99.90
46438;DHT22;32137;48.728;9.142;2023-02-11T10:08:15;2.60;99.90
46438;DHT22;32137;48.728;9.142;2023-02-11T10:10:52;2.70;99.90
46438;DHT22;32137;48.728;9.142;2023-02-11T10:13:37;2.70;99.90
46438;DHT22;32137;48.728;9.142;2023-02-11T10:24:02;2.80;99.90
46438;DHT22;32137;48.728;9.142;2023-02-11T10:26:31;2.90;99.90
46438;DHT22;32137;48.728;9.142;2023-02-11T10:29:00;2.90;99.90
46438;DHT22;32137;48.728;9.142;2023-02-11T10:31:36;2.90;99.90
46438;DHT22;32137;48.728;9.142;2023-02-11T10:34:05;3.10;99.90
46438;DHT22;32137;48.728;9.142;2023-02-11T10:36:36;3.20;99.90
46438;DHT22;32137;48.728;9.142;2023-02-11T10:39:28;3.20;99.90
46438;DHT22;32137;48.728;9.142;2023-02-11T10:41:58;3.30;99.90
46438;DHT22;32137;48.728;9.142;2023-02-11T10:44:31;3.30;99.90
46438;DHT22;32137;48.728;9.142;2023-02-11T10:47:02;3.50;99.90
46438;DHT22;32137;48.728;9.142;2023-02-11T10:49:38;3.60;99.90
46438;DHT22;32137;48.728;9.142;2023-02-11T10:57:37;3.70;99.90
46438;DHT22;32137;48.728;9.142;2023-02-11T11:02:56;3.70;99.90
46438;DHT22;32137;48.728;9.142;2023-02-11T11:05:58;3.70;99.90
46438;DHT22;32137;48.728;9.142;2023-02-11T11:11:17;3.80;99.90
46438;DHT22;32137;48.728;9.142;2023-02-11T11:16:38;4.00;99.90
46438;DHT22;32137;48.728;9.142;2023-02-11T11:21:49;4.10;99.90
46438;DHT22;32137;48.728;9.142;2023-02-11T11:24:31;4.20;99.90
46438;DHT22;32137;48.728;9.142;2023-02-11T11:27:02;4.40;99.90
46438;DHT22;32137;48.728;9.142;2023-02-11T11:31:58;4.50;99.90
46438;DHT22;32137;48.728;9.142;2023-02-11T11:34:32;4.50;99.90
46438;DHT22;32137;48.728;9.142;2023-02-11T11:37:00;4.70;99.90
46438;DHT22;32137;48.728;9.142;2023-02-11T11:39:34;4.80;99.90
46438;DHT22;32137;48.728;9.142;2023-02-11T11:42:02;4.80;99.90
46438;DHT22;32137;48.728;9.142;2023-02-11T11:44:32;4.80;99.90
46438;DHT22;32137;48.728;9.142;2023-02-11T11:47:21;4.80;99.90
46438;DHT22;32137;48.728;9.142;2023-02-11T11:52:48;4.80;99.90
46438;DHT22;32137;48.728;9.142;2023-02-11T11:55:27;4.80;99.90
46438;DHT22;32137;48.728;9.142;2023-02-11T11:57:55;4.90;99.90
46438;DHT22;32137;48.728;9.142;2023-02-11T12:00:31;4.90;99.90
46438;DHT22;32137;48.728;9.142;2023-02-11T12:03:16;5.10;99.90
46438;DHT22;32137;48.728;9.142;2023-02-11T12:06:04;5.40;99.90
46438;DHT22;32137;48.728;9.142;2023-02-11T12:11:19;6.10;99.90
46438;DHT22;32137;48.728;9.142;2023-02-11T12:16:23;6.70;98.40
46438;DHT22;32137;48.728;9.142;2023-02-11T12:19:19;6.90;97.70
46438;DHT22;32137;48.728;9.142;2023-02-11T12:35:26;6.80;96.40
46438;DHT22;32137;48.728;9.142;2023-02-11T12:38:05;6.90;96.40
46438;DHT22;32137;48.728;9.142;2023-02-11T12:46:01;8.00;94.70
46438;DHT22;32137;48.728;9.142;2023-02-11T12:54:23;8.50;93.40
46438;DHT22;32137;48.728;9.142;2023-02-11T13:01:54;8.50;93.30
46438;DHT22;32137;48.728;9.142;2023-02-11T13:04:28;8.50;93.20
46438;DHT22;32137;48.728;9.142;2023-02-11T13:06:58;8.40;93.30
46438;DHT22;32137;48.728;9.142;2023-02-11T13:09:34;8.40;93.50
46438;DHT22;32137;48.728;9.142;2023-02-11T13:12:03;8.40;93.30
46438;DHT22;32137;48.728;9.142;2023-02-11T13:14:51;8.30;93.20
46438;DHT22;32137;48.728;9.142;2023-02-11T13:17:27;8.40;93.30
46438;DHT22;32137;48.728;9.142;2023-02-11T13:20:04;8.40;93.30
46438;DHT22;32137;48.728;9.142;2023-02-11T13:22:43;8.30;93.20
46438;DHT22;32137;48.728;9.142;2023-02-11T13:25:33;8.20;93.40
46438;DHT22;32137;48.728;9.142;2023-02-11T13:28:24;8.20;93.50
46438;DHT22;32137;48.728;9.142;2023-02-11T13:30:52;8.30;93.20
46438;DHT22;32137;48.728;9.142;2023-02-11T13:33:40;8.40;93.00
46438;DHT22;32137;48.728;9.142;2023-02-11T13:38:33;8.90;92.50
46438;DHT22;32137;48.728;9.142;2023-02-11T13:41:15;9.20;92.00
46438;DHT22;32137;48.728;9.142;2023-02-11T13:43:41;9.50;91.40
46438;DHT22;32137;48.728;9.142;2023-02-11T13:46:11;9.60;91.40
46438;DHT22;32137;48.728;9.142;2023-02-11T13:48:49;9.60;91.20
46438;DHT22;32137;48.728;9.142;2023-02-11T13:51:35;9.60;91.10
46438;DHT22;32137;48.728;9.142;2023-02-11T13:54:03;9.40;91.40
46438;DHT22;32137;48.728;9.142;2023-02-11T13:56:35;9.10;91.60
46438;DHT22;32137;48.728;9.142;2023-02-11T14:05:15;8.20;92.90
46438;DHT22;32137;48.728;9.142;2023-02-11T14:13:34;8.00;93.80
46438;DHT22;32137;48.728;9.142;2023-02-11T14:16:10;8.00;93.70
46438;DHT22;32137;48.728;9.142;2023-02-11T14:21:21;8.20;93.70
46438;DHT22;32137;48.728;9.142;2023-02-11T14:23:49;8.20;93.70
46438;DHT22;32137;48.728;9.142;2023-02-11T14:29:02;8.40;93.40
46438;DHT22;32137;48.728;9.142;2023-02-11T14:32:00;8.40;93.30
46438;DHT22;32137;48.728;9.142;2023-02-11T14:40:30;8.70;93.00
46438;DHT22;32137;48.728;9.142;2023-02-11T14:43:05;8.70;92.80
46438;DHT22;32137;48.728;9.142;2023-02-11T14:45:36;8.70;92.80
46438;DHT22;32137;48.728;9.142;2023-02-11T14:48:14;8.80;96.30
46438;DHT22;32137;48.728;9.142;2023-02-11T14:50:53;8.70;92.70
46438;DHT22;32137;48.728;9.142;2023-02-11T14:53:22;8.70;92.70
46438;DHT22;32137;48.728;9.142;2023-02-11T14:55:53;8.70;92.60
46438;DHT22;32137;48.728;9.142;2023-02-11T15:01:04;8.60;92.90
46438;DHT22;32137;48.728;9.142;2023-02-11T15:03:39;8.60;92.80
46438;DHT22;32137;48.728;9.142;2023-02-11T15:06:21;8.60;92.80
46438;DHT22;32137;48.728;9.142;2023-02-11T15:08:56;8.70;92.70
46438;DHT22;32137;48.728;9.142;2023-02-11T15:11:26;8.60;92.70
46438;DHT22;32137;48.728;9.142;2023-02-11T15:14:07;8.70;92.70
46438;DHT22;32137;48.728;9.142;2023-02-11T15:16:33;8.80;92.50
46438;DHT22;32137;48.728;9.142;2023-02-11T15:19:03;8.90;92.40
46438;DHT22;32137;48.728;9.142;2023-02-11T15:21:31;8.90;92.30
46438;DHT22;32137;48.728;9.142;2023-02-11T15:24:02;8.90;92.20
46438;DHT22;32137;48.728;9.142;2023-02-11T15:26:30;8.90;92.20
46438;DHT22;32137;48.728;9.142;2023-02-11T15:28:56;8.90;92.30
46438;DHT22;32137;48.728;9.142;2023-02-11T15:31:25;8.80;92.30
46438;DHT22;32137;48.728;9.142;2023-02-11T15:33:52;8.70;92.30
46438;DHT22;32137;48.728;9.142;2023-02-11T15:36:21;8.70;92.40
46438;DHT22;32137;48.728;9.142;2023-02-11T15:39:14;8.70;92.40
46438;DHT22;32137;48.728;9.142;2023-02-11T15:41:40;8.70;92.40
46438;DHT22;32137;48.728;9.142;2023-02-11T15:44:31;8.60;92.40
46438;DHT22;32137;48.728;9.142;2023-02-11T15:46:57;8.50;92.70
46438;DHT22;32137;48.728;9.142;2023-02-11T15:49:24;8.40;92.80
46438;DHT22;32137;48.728;9.142;2023-02-11T15:51:51;8.30;92.90
46438;DHT22;32137;48.728;9.142;2023-02-11T15:54:20;8.20;93.10
46438;DHT22;32137;48.728;9.142;2023-02-11T15:56:51;8.00;93.50
46438;DHT22;32137;48.728;9.142;2023-02-11T15:59:52;7.80;93.50
46438;DHT22;32137;48.728;9.142;2023-02-11T16:02:30;7.70;93.80
46438;DHT22;32137;48.728;9.142;2023-02-11T16:05:02;7.50;98.10
46438;DHT22;32137;48.728;9.142;2023-02-11T16:07:46;7.40;94.60
46438;DHT22;32137;48.728;9.142;2023-02-11T16:10:31;7.20;94.90
46438;DHT22;32137;48.728;9.142;2023-02-11T16:17:59;7.00;95.90
46438;DHT22;32137;48.728;9.142;2023-02-11T16:20:25;7.00;96.10
46438;DHT22;32137;48.728;9.142;2023-02-11T16:22:51;6.90;96.20
46438;DHT22;32137;48.728;9.142;2023-02-11T16:25:21;6.90;96.40
46438;DHT22;32137;48.728;9.142;2023-02-11T16:27:49;6.80;96.60
46438;DHT22;32137;48.728;9.142;2023-02-11T16:30:34;6.80;96.80
46438;DHT22;32137;48.728;9.142;2023-02-11T16:33:02;6.70;96.90
46438;DHT22;32137;48.728;9.142;2023-02-11T16:35:29;6.70;97.30
46438;DHT22;32137;48.728;9.142;2023-02-11T16:37:54;6.60;97.40
46438;DHT22;32137;48.728;9.142;2023-02-11T16:40:20;6.50;97.80
46438;DHT22;32137;48.728;9.142;2023-02-11T16:42:48;6.50;98.00
46438;DHT22;32137;48.728;9.142;2023-02-11T16:45:14;6.40;98.30
46438;DHT22;32137;48.728;9.142;2023-02-11T16:47:41;6.50;98.50
46438;DHT22;32137;48.728;9.142;2023-02-11T16:50:09;6.40;98.70
46438;DHT22;32137;48.728;9.142;2023-02-11T16:52:36;6.40;98.70
46438;DHT22;32137;48.728;9.142;2023-02-11T16:55:03;6.40;99.00
46438;DHT22;32137;48.728;9.142;2023-02-11T16:57:30;6.40;99.00
46438;DHT22;32137;48.728;9.142;2023-02-11T16:59:55;6.40;99.30
46438;DHT22;32137;48.728;9.142;2023-02-11T17:02:29;6.40;99.10
46438;DHT22;32137;48.728;9.142;2023-02-11T17:04:58;6.50;99.20
46438;DHT22;32137;48.728;9.142;2023-02-11T17:07:25;6.50;99.30
46438;DHT22;32137;48.728;9.142;2023-02-11T17:09:50;6.50;99.20
46438;DHT22;32137;48.728;9.142;2023-02-11T17:12:17;6.50;99.40
46438;DHT22;32137;48.728;9.142;2023-02-11T17:14:43;6.50;99.30
46438;DHT22;32137;48.728;9.142;2023-02-11T17:17:09;6.40;99.50
46438;DHT22;32137;48.728;9.142;2023-02-11T17:19:35;6.40;99.50
46438;DHT22;32137;48.728;9.142;2023-02-11T17:22:01;6.40;99.60
46438;DHT22;32137;48.728;9.142;2023-02-11T17:24:26;6.40;99.90
46438;DHT22;32137;48.728;9.142;2023-02-11T17:26:52;6.40;99.90
46438;DHT22;32137;48.728;9.142;2023-02-11T17:29:21;6.40;99.90
46438;DHT22;32137;48.728;9.142;2023-02-11T17:31:47;6.50;99.90
46438;DHT22;32137;48.728;9.142;2023-02-11T17:34:13;6.60;99.90
46438;DHT22;32137;48.728;9.142;2023-02-11T17:36:39;6.50;99.90
46438;DHT22;32137;48.728;9.142;2023-02-11T17:39:06;6.50;99.90
46438;DHT22;32137;48.728;9.142;2023-02-11T17:41:31;6.50;99.90
46438;DHT22;32137;48.728;9.142;2023-02-11T17:43:58;6.50;99.90
46438;DHT22;32137;48.728;9.142;2023-02-11T17:46:24;6.40;99.90
46438;DHT22;32137;48.728;9.142;2023-02-11T17:48:49;6.30;99.90
46438;DHT22;32137;48.728;9.142;2023-02-11T17:51:28;6.30;99.90
46438;DHT22;32137;48.728;9.142;2023-02-11T17:53:56;6.30;99.90
46438;DHT22;32137;48.728;9.142;2023-02-11T17:56:22;6.20;99.90
46438;DHT22;32137;48.728;9.142;2023-02-11T17:58:48;6.20;99.90
46438;DHT22;32137;48.728;9.142;2023-02-11T18:01:13;6.20;99.90
46438;DHT22;32137;48.728;9.142;2023-02-11T18:03:39;6.10;99.90
46438;DHT22;32137;48.728;9.142;2023-02-11T18:06:05;6.10;99.90
46438;DHT22;32137;48.728;9.142;2023-02-11T18:08:33;6.20;99.90
46438;DHT22;32137;48.728;9.142;2023-02-11T18:10:59;6.10;99.90